HomeShort term forecast

Short term forecast

Graphical weather forecast for the next 48 hours for Montreal:
Short term forecast
This weather forecast is automatically refreshed every 3 hours.

Hourly Experimental Forecast for the next 48 hours

Overall summary: Mostly cloudy until tomorrow morning and breezy tomorrow afternoon.

 Date & Hour   Temp   Feel   Baro   Hum   Speed & Bearing   Wind Gust   Precip.%   Precip.   Visibility   Cloud cover   Conditions 
 19/10/2018 - 03:00  4.9°C  2.3°C  1019.1 hPa  65%  10.9 km/h   32.7 km/h  2%  0.01 mm/h  16.1km  100%  Overcast 
 19/10/2018 - 04:00  4.8°C  1.9°C  1018.4 hPa  68%  12.3 km/h   33.7 km/h  2%  0.02 mm/h  16.1km  78%  Mostly Cloudy 
 19/10/2018 - 05:00  4.3°C  1.2°C  1017.9 hPa  72%  13.6 km/h   37.9 km/h  0%  --  16.1km  70%  Mostly Cloudy 
 19/10/2018 - 06:00  3.9°C  0.5°C  1017.4 hPa  74%  14.2 km/h   39.4 km/h  2%  0.03 mm/h  16.1km  79%  Mostly Cloudy 
 19/10/2018 - 07:00  3.9°C  0.6°C  1017.0 hPa  75%  14.1 km/h   38.2 km/h  0%  --  16.1km  60%  Mostly Cloudy 
 19/10/2018 - 08:00  4.6°C  1.3°C  1016.3 hPa  76%  14.7 km/h   36.9 km/h  0%  --  16.1km  66%  Mostly Cloudy 
 19/10/2018 - 09:00  6.0°C  2.5°C  1015.5 hPa  73%  18.6 km/h   46.9 km/h  2%  0.03 mm/h  16.1km  35%  Partly Cloudy 
 19/10/2018 - 10:00  7.7°C  4.3°C  1014.8 hPa  69%  22.7 km/h   48.4 km/h  2%  0.02 mm/h  16.1km  18%  Clear 
 19/10/2018 - 11:00  9.5°C  6.3°C  1013.8 hPa  66%  25.0 km/h   48.1 km/h  0%  --  16.1km  8%  Clear 
 19/10/2018 - 12:00  11.0°C  11.0°C  1012.7 hPa  63%  26.4 km/h   47.8 km/h  0%  --  16.1km  4%  Breezy 
 19/10/2018 - 13:00  12.4°C  12.4°C  1011.7 hPa  62%  27.6 km/h   47.0 km/h  2%  0.03 mm/h  16.1km  3%  Breezy 
 19/10/2018 - 14:00  13.6°C  13.6°C  1010.8 hPa  61%  28.2 km/h   46.7 km/h  0%  --  16.1km  4%  Breezy 
 19/10/2018 - 15:00  14.2°C  14.2°C  1010.2 hPa  60%  28.0 km/h   48.3 km/h  2%  0.01 mm/h  16.1km  7%  Breezy 
 19/10/2018 - 16:00  14.4°C  14.4°C  1009.4 hPa  61%  27.2 km/h   50.4 km/h  0%  --  16.1km  19%  Clear 
 19/10/2018 - 17:00  14.7°C  14.7°C  1008.5 hPa  61%  26.2 km/h   49.3 km/h  0%  --  16.1km  24%  Clear 
 19/10/2018 - 18:00  14.1°C  14.1°C  1007.9 hPa  62%  25.2 km/h   52.1 km/h  0%  --  16.1km  35%  Partly Cloudy 
 19/10/2018 - 19:00  13.0°C  13.0°C  1007.3 hPa  65%  24.4 km/h   55.2 km/h  0%  --  16.1km  48%  Partly Cloudy 
 19/10/2018 - 20:00  12.2°C  12.2°C  1006.6 hPa  66%  23.6 km/h   57.3 km/h  3%  0.01 mm/h  16.1km  60%  Mostly Cloudy 
 19/10/2018 - 21:00  12.0°C  12.0°C  1005.6 hPa  65%  22.9 km/h   57.6 km/h  3%  0.01 mm/h  16.1km  70%  Mostly Cloudy 
 19/10/2018 - 22:00  12.0°C  12.0°C  1004.6 hPa  63%  22.2 km/h   56.5 km/h  5%  0.01 mm/h  16.1km  83%  Mostly Cloudy 
 19/10/2018 - 23:00  11.8°C  11.8°C  1003.6 hPa  61%  21.8 km/h   55.2 km/h  6%  0.01 mm/h  16.1km  93%  Mostly Cloudy 
 20/10/2018 - 00:00  11.5°C  11.5°C  1002.6 hPa  60%  21.8 km/h   54.0 km/h  6%  0.03 mm/h  16.1km  96%  Overcast 
 20/10/2018 - 01:00  11.1°C  11.1°C  1001.7 hPa  59%  22.1 km/h   52.7 km/h  7%  0.05 mm/h  16.1km  96%  Overcast 
 20/10/2018 - 02:00  10.7°C  10.7°C  1000.7 hPa  59%  22.4 km/h   52.3 km/h  12%  0.08 mm/h  16.1km  96%  Overcast 
 20/10/2018 - 03:00  10.2°C  10.2°C  999.4 hPa  60%  22.5 km/h   53.3 km/h  16%  0.09 mm/h  16.1km  98%  Overcast 
 20/10/2018 - 04:00  9.6°C  6.7°C  998.1 hPa  63%  22.6 km/h   55.2 km/h  16%  0.10 mm/h  16.1km  99%  Overcast 
 20/10/2018 - 05:00  8.9°C  5.6°C  997.0 hPa  68%  23.4 km/h   57.2 km/h  19%  0.11 mm/h  16.1km  100%  Overcast 
 20/10/2018 - 06:00  8.6°C  5.1°C  996.4 hPa  75%  25.4 km/h   59.2 km/h  32%  0.17 mm/h  16.1km  100%  Breezy and Overcast 
 20/10/2018 - 07:00  8.4°C  4.6°C  996.0 hPa  84%  28.0 km/h   61.1 km/h  53%  0.31 mm/h  16.1km  100%  Breezy and Overcast 
 20/10/2018 - 08:00  8.6°C  4.8°C  995.8 hPa  88%  29.9 km/h   61.2 km/h  58%  0.40 mm/h  16.1km  100%  Breezy and Overcast 
 20/10/2018 - 09:00  9.1°C  5.4°C  996.0 hPa  88%  30.5 km/h   58.2 km/h  47%  0.29 mm/h  16.1km  97%  Breezy and Overcast 
 20/10/2018 - 10:00  10.0°C  6.5°C  996.5 hPa  83%  30.4 km/h   53.7 km/h  27%  0.15 mm/h  16.1km  93%  Breezy and Mostly Cloudy 
 20/10/2018 - 11:00  10.5°C  10.5°C  996.8 hPa  79%  30.1 km/h   49.6 km/h  20%  0.11 mm/h  16.1km  89%  Breezy and Mostly Cloudy 
 20/10/2018 - 12:00  10.9°C  10.9°C  996.9 hPa  74%  30.1 km/h   46.6 km/h  15%  0.07 mm/h  16.1km  79%  Breezy and Mostly Cloudy 
 20/10/2018 - 13:00  10.8°C  10.8°C  997.0 hPa  70%  29.9 km/h   43.7 km/h  10%  0.05 mm/h  16.1km  68%  Breezy and Mostly Cloudy 
 20/10/2018 - 14:00  10.8°C  10.8°C  997.1 hPa  66%  28.9 km/h   40.5 km/h  8%  0.05 mm/h  16.1km  62%  Breezy and Mostly Cloudy 
 20/10/2018 - 15:00  10.6°C  10.6°C  997.3 hPa  66%  25.9 km/h   36.6 km/h  11%  0.11 mm/h  16.1km  65%  Mostly Cloudy 
 20/10/2018 - 16:00  10.3°C  10.3°C  997.6 hPa  67%  22.7 km/h   32.7 km/h  25%  0.37 mm/h  16.1km  71%  Mostly Cloudy 
 20/10/2018 - 17:00  9.9°C  7.2°C  998.1 hPa  67%  20.5 km/h   30.4 km/h  28%  0.61 mm/h  16.1km  73%  Mostly Cloudy 
 20/10/2018 - 18:00  9.2°C  6.5°C  998.8 hPa  69%  18.7 km/h   30.8 km/h  25%  0.46 mm/h  16.1km  64%  Mostly Cloudy 
 20/10/2018 - 19:00  8.1°C  5.2°C  999.7 hPa  72%  17.8 km/h   32.4 km/h  15%  0.19 mm/h  16.1km  51%  Partly Cloudy 
 20/10/2018 - 20:00  7.1°C  4.0°C  1000.5 hPa  74%  17.9 km/h   33.6 km/h  9%  0.07 mm/h  16.1km  42%  Partly Cloudy 
 20/10/2018 - 21:00  6.3°C  3.0°C  1001.1 hPa  74%  18.0 km/h   34.3 km/h  7%  0.03 mm/h  16.1km  44%  Partly Cloudy 
 20/10/2018 - 22:00  5.6°C  2.0°C  1001.7 hPa  74%  18.7 km/h   34.9 km/h  5%  0.01 mm/h  16.1km  51%  Partly Cloudy 
 20/10/2018 - 23:00  4.9°C  1.0°C  1002.3 hPa  74%  19.4 km/h   35.5 km/h  0%  --  16.1km  56%  Partly Cloudy 
 21/10/2018 - 00:00  4.1°C  0.0°C  1002.9 hPa  73%  19.5 km/h   36.1 km/h  0%  --  16.1km  54%  Partly Cloudy 
 21/10/2018 - 01:00  3.4°C  -0.9°C  1003.6 hPa  72%  19.4 km/h   36.6 km/h  0%  --  16.1km  50%  Partly Cloudy 
 21/10/2018 - 02:00  2.8°C  -1.7°C  1004.2 hPa  71%  19.6 km/h   37.5 km/h  0%  --  16.1km  47%  Partly Cloudy 
Test

 

Past weather and reports

Past weatherFind in this section the past weather conditions, weather archive, graphics, reports and statistics.

Current conditions

Current weather condition for MontrealAll you need to know about the current weather conditions for Montreal. Weather data is updated every 10 minutes.

Weather forecast

Current Montreal weatherSince 2004, celinium.com website has provided accurate weather forecast for Montreal's island.